Time;durP1;ratioP1;P1;durP2;ratioP2;P2;SDS_P1;SDS_P2;PMS_P1;PMS_P2;Temp;Humidity;BMP_temperature;BMP_pressure;BME280_temperature;BME280_humidity;BME280_pressure;Samples;Min_cycle;Max_cycle;Signal;HPM_P1;HPM_P2
2023/12/16 00:01:31;;;;;;;30.70;10.70;;;3.10;99.90;;;2.37;100.00;103820.34;4168845;28;20032;-71
2023/12/16 00:03:32;;;;;;;28.65;9.88;;;3.10;99.90;;;2.35;100.00;103811.72;4158895;28;20025;-71
2023/12/16 00:05:33;;;;;;;23.92;9.13;;;3.10;99.90;;;2.33;100.00;103819.53;4168687;28;20026;-71
2023/12/16 00:07:34;;;;;;;15.95;8.25;;;3.10;99.90;;;2.31;100.00;103820.44;4167547;28;20026;-72
2023/12/16 00:09:35;;;;;;;21.25;8.40;;;3.10;99.90;;;2.29;100.00;103824.84;4184035;28;20657;-71
2023/12/16 00:11:36;;;;;;;16.95;9.48;;;3.10;99.90;;;2.21;100.00;103819.78;4167279;28;20025;-71
2023/12/16 00:13:37;;;;;;;27.92;10.50;;;3.00;99.90;;;2.17;100.00;103824.19;4167581;28;20039;-71
2023/12/16 00:15:38;;;;;;;20.15;10.15;;;3.00;99.90;;;2.14;100.00;103821.63;4200723;28;20415;-71
2023/12/16 00:17:39;;;;;;;23.70;9.95;;;2.90;99.90;;;2.12;100.00;103831.19;4168358;28;20458;-71
2023/12/16 00:19:40;;;;;;;20.83;10.95;;;2.90;99.90;;;2.10;100.00;103822.56;4167498;28;20032;-71
2023/12/16 00:21:41;;;;;;;24.92;12.10;;;2.90;99.90;;;2.13;100.00;103832.06;4168670;28;20107;-71
2023/12/16 00:23:42;;;;;;;30.15;11.85;;;2.90;99.90;;;2.09;100.00;103820.81;4163446;28;20048;-71
2023/12/16 00:25:42;;;;;;;23.98;11.50;;;2.90;99.90;;;2.10;100.00;103822.56;4168175;28;20096;-71
2023/12/16 00:27:43;;;;;;;29.38;12.90;;;2.90;99.90;;;2.06;100.00;103820.06;4168508;28;20026;-71
2023/12/16 00:29:44;;;;;;;26.38;12.05;;;2.80;99.90;;;2.02;100.00;103837.47;4167418;28;20032;-71
2023/12/16 00:31:45;;;;;;;30.65;16.65;;;2.80;99.90;;;2.06;100.00;103831.31;4200336;28;20021;-71
2023/12/16 00:33:46;;;;;;;65.75;31.60;;;2.80;99.90;;;2.03;100.00;103833.94;4168373;28;20500;-71
2023/12/16 00:35:47;;;;;;;66.60;34.13;;;2.80;99.90;;;2.03;100.00;103835.72;4168705;28;20389;-71
2023/12/16 00:37:48;;;;;;;64.88;33.38;;;2.80;99.90;;;2.02;100.00;103831.38;4167200;28;20026;-71
2023/12/16 00:39:49;;;;;;;66.90;31.02;;;2.80;99.90;;;2.01;100.00;103832.25;4167431;28;20033;-71
2023/12/16 00:41:49;;;;;;;57.53;27.73;;;2.80;99.90;;;1.99;100.00;103834.91;4167864;28;20036;-71
2023/12/16 00:43:50;;;;;;;74.07;37.22;;;2.80;99.90;;;1.98;100.00;103827.09;4168427;28;20025;-71
2023/12/16 00:45:51;;;;;;;101.55;51.95;;;2.80;99.90;;;2.00;100.00;103820.16;4168411;28;20037;-71
2023/12/16 00:47:52;;;;;;;95.35;51.00;;;2.80;99.90;;;2.05;100.00;103827.00;4150808;28;20029;-71
2023/12/16 00:49:53;;;;;;;73.35;39.80;;;2.70;99.90;;;2.05;100.00;103827.00;4167051;28;20025;-71
2023/12/16 00:51:58;;;;;;;78.70;39.60;;;2.80;99.90;;;2.04;100.00;103827.88;4167047;28;20029;-71
2023/12/16 00:53:58;;;;;;;83.22;40.95;;;2.80;99.90;;;1.99;100.00;103832.31;4167418;28;20044;-71
2023/12/16 00:55:59;;;;;;;86.10;45.08;;;2.80;99.90;;;1.98;100.00;103835.78;4168258;28;20021;-71
2023/12/16 00:58:00;;;;;;;86.78;41.70;;;2.70;99.90;;;1.96;100.00;103821.06;4170208;28;20030;-71
2023/12/16 01:00:01;;;;;;;68.90;41.03;;;2.70;99.90;;;1.94;100.00;103822.88;4175872;28;20025;-71
2023/12/16 01:02:02;;;;;;;71.07;37.13;;;2.70;99.90;;;1.92;100.00;103824.59;4171565;28;20088;-71
2023/12/16 01:04:03;;;;;;;74.22;38.58;;;2.70;99.90;;;1.90;100.00;103829.84;4171324;28;20017;-71
2023/12/16 01:06:04;;;;;;;85.30;39.20;;;2.70;99.90;;;1.91;100.00;103822.91;4203229;28;20033;-71
2023/12/16 01:08:05;;;;;;;66.07;34.97;;;2.70;99.90;;;1.91;100.00;103821.13;4171420;28;20029;-71
2023/12/16 01:10:07;;;;;;;61.75;33.53;;;2.60;99.90;;;1.91;100.00;103821.13;4153668;28;20026;-71
2023/12/16 01:12:09;;;;;;;71.38;34.97;;;2.70;99.90;;;1.86;100.00;103811.69;4168422;28;20021;-71
2023/12/16 01:14:09;;;;;;;74.03;34.85;;;2.70;99.90;;;1.84;100.00;103822.16;4199825;28;20404;-71
2023/12/16 01:16:10;;;;;;;55.22;28.83;;;2.60;99.90;;;1.81;100.00;103811.78;4202869;28;20130;-71
2023/12/16 01:18:11;;;;;;;64.38;31.02;;;2.60;99.90;;;1.79;100.00;103810.97;4186618;28;20436;-71
2023/12/16 01:20:12;;;;;;;49.72;26.33;;;2.60;99.90;;;1.79;100.00;103816.16;4170117;28;20025;-71
2023/12/16 01:22:13;;;;;;;57.20;28.20;;;2.60;99.90;;;1.75;100.00;103827.50;4167811;28;20057;-72
2023/12/16 01:24:15;;;;;;;58.58;25.52;;;2.60;99.90;;;1.78;100.00;103831.78;4202210;28;20052;-71
2023/12/16 01:26:16;;;;;;;48.60;23.10;;;2.50;99.90;;;1.78;100.00;103831.78;4159400;28;20017;-71
2023/12/16 01:28:17;;;;;;;47.25;23.08;;;2.50;99.90;;;1.78;100.00;103830.06;4169936;28;20025;-72
2023/12/16 01:30:17;;;;;;;49.40;22.23;;;2.60;99.90;;;1.78;100.00;103832.66;4169611;28;20021;-71
2023/12/16 01:32:18;;;;;;;34.70;20.75;;;2.60;99.90;;;1.79;100.00;103834.38;4169750;28;21374;-71
2023/12/16 01:34:19;;;;;;;47.78;21.65;;;2.60;99.90;;;1.78;100.00;103830.06;4169552;28;20021;-72
2023/12/16 01:36:20;;;;;;;34.90;19.42;;;2.60;99.90;;;1.82;100.00;103830.88;4169805;28;20078;-71
2023/12/16 01:38:22;;;;;;;36.22;18.52;;;2.50;99.90;;;1.85;100.00;103831.66;4153024;28;20029;-71
2023/12/16 01:40:23;;;;;;;26.20;15.18;;;2.60;99.90;;;1.85;100.00;103826.44;4170782;28;20037;-71
2023/12/16 01:42:24;;;;;;;38.03;17.95;;;2.60;99.90;;;1.84;100.00;103826.47;4170618;28;20021;-71
2023/12/16 01:44:24;;;;;;;30.45;15.05;;;2.60;99.90;;;1.80;100.00;103827.41;4169659;28;20040;-71
2023/12/16 01:46:26;;;;;;;30.25;15.30;;;2.60;99.90;;;1.76;100.00;103826.63;4169658;28;20021;-71
2023/12/16 01:48:27;;;;;;;32.40;16.15;;;2.50;99.90;;;1.75;100.00;103818.81;4169614;28;20034;-71
2023/12/16 01:50:28;;;;;;;29.95;14.98;;;2.50;99.90;;;1.72;100.00;103813.66;4169620;28;20021;-71
2023/12/16 01:52:29;;;;;;;26.58;14.57;;;2.50;99.90;;;1.76;100.00;103821.41;4169069;28;20033;-71
2023/12/16 01:54:32;;;;;;;26.02;13.55;;;2.50;99.90;;;1.80;100.00;103830.00;4153031;28;20057;-71
2023/12/16 01:56:33;;;;;;;25.90;13.65;;;2.60;99.90;;;1.78;100.00;103822.25;4169105;28;20079;-71
2023/12/16 01:58:37;;;;;;;29.08;13.18;;;2.60;99.90;;;1.78;100.00;103827.44;4169450;28;20089;-71
2023/12/16 02:00:38;;;;;;;30.65;14.75;;;2.60;99.90;;;1.75;100.00;103811.88;4170630;28;20381;-71
2023/12/16 02:02:40;;;;;;;26.77;15.38;;;2.50;99.90;;;1.76;100.00;103823.16;4163325;28;20096;-71
2023/12/16 02:04:40;;;;;;;21.83;12.30;;;2.60;99.90;;;1.76;100.00;103830.97;4201548;28;20054;-71
2023/12/16 02:06:41;;;;;;;26.98;13.85;;;2.50;99.90;;;1.76;100.00;103837.03;4202615;28;20029;-71
2023/12/16 02:08:42;;;;;;;26.88;14.52;;;2.50;99.90;;;1.73;100.00;103831.88;4170192;28;20033;-71
2023/12/16 02:10:43;;;;;;;25.58;13.70;;;2.50;99.90;;;1.75;100.00;103829.22;4169137;28;20022;-71
2023/12/16 02:12:44;;;;;;;23.90;12.25;;;2.50;99.90;;;1.66;100.00;103819.84;4163051;28;20041;-71
2023/12/16 02:14:45;;;;;;;19.27;12.13;;;2.50;99.90;;;1.67;100.00;103826.75;4170270;28;20033;-71
2023/12/16 02:16:46;;;;;;;24.63;12.98;;;2.50;99.90;;;1.67;100.00;103838.00;4170448;28;20052;-71
2023/12/16 02:18:52;;;;;;;24.23;12.52;;;2.50;99.90;;;1.59;100.00;103837.28;4168985;28;20037;-71
2023/12/16 02:20:53;;;;;;;29.00;13.52;;;2.40;99.90;;;1.60;100.00;103843.34;4152452;28;20041;-71
2023/12/16 02:22:54;;;;;;;27.58;11.98;;;2.40;99.90;;;1.58;100.00;103837.31;4170320;28;20444;-71
2023/12/16 02:24:55;;;;;;;20.98;12.65;;;2.40;99.90;;;1.59;100.00;103836.41;4169088;28;20432;-71
2023/12/16 02:26:56;;;;;;;17.17;10.13;;;2.40;99.90;;;1.59;100.00;103842.47;4168763;28;20025;-71
2023/12/16 02:28:57;;;;;;;21.85;9.48;;;2.30;99.90;;;1.55;100.00;103832.16;4201821;28;20021;-71
2023/12/16 02:30:58;;;;;;;13.52;7.95;;;2.40;99.90;;;1.60;100.00;103831.19;4168500;28;20032;-71
2023/12/16 02:32:59;;;;;;;17.90;9.30;;;2.40;99.90;;;1.54;100.00;103820.00;4170042;28;20044;-71
2023/12/16 02:34:59;;;;;;;18.23;10.02;;;2.40;99.90;;;1.51;100.00;103830.47;4168801;28;20021;-71
2023/12/16 02:37:05;;;;;;;15.50;9.30;;;2.30;99.90;;;1.44;100.00;103828.81;4169935;28;20036;-71
2023/12/16 02:39:06;;;;;;;21.10;9.60;;;2.30;99.90;;;1.43;100.00;103828.00;4168776;28;20033;-71
2023/12/16 02:41:07;;;;;;;15.35;8.35;;;2.30;99.90;;;1.48;100.00;103840.91;4168438;28;20037;-71
2023/12/16 02:43:11;;;;;;;18.02;8.68;;;2.30;99.90;;;1.49;100.00;103832.25;4175509;28;20018;-71
2023/12/16 02:45:12;;;;;;;18.67;8.68;;;2.30;99.90;;;1.43;100.00;103828.00;4183478;28;20100;-71
2023/12/16 02:47:12;;;;;;;15.60;8.93;;;2.30;99.90;;;1.41;100.00;103837.53;4189682;28;20024;-72
2023/12/16 02:49:13;;;;;;;20.13;9.27;;;2.20;99.90;;;1.28;100.00;103809.13;4168570;28;20052;-72
2023/12/16 02:51:20;;;;;;;16.17;8.68;;;2.20;99.90;;;1.41;100.00;103834.06;4169793;28;20060;-71
2023/12/16 02:53:21;;;;;;;17.23;9.23;;;2.20;99.90;;;1.40;100.00;103837.56;4169188;28;20100;-71
2023/12/16 02:55:22;;;;;;;17.83;8.57;;;2.20;99.90;;;1.37;100.00;103841.09;4169816;28;20048;-71
2023/12/16 02:57:23;;;;;;;17.67;9.10;;;2.20;99.90;;;1.34;100.00;103837.66;4168255;28;20487;-71
2023/12/16 02:59:24;;;;;;;18.10;8.13;;;2.20;99.90;;;1.37;100.00;103837.63;4184753;28;20070;-71
2023/12/16 03:01:25;;;;;;;10.75;7.35;;;2.10;99.90;;;1.40;100.00;103834.97;4168309;28;20501;-71
2023/12/16 03:03:26;;;;;;;15.85;8.20;;;2.20;99.90;;;1.41;100.00;103837.53;4169477;28;20033;-71
2023/12/16 03:05:27;;;;;;;14.68;8.40;;;2.20;99.90;;;1.39;100.00;103831.50;4176611;28;20032;-71
2023/12/16 03:07:27;;;;;;;12.30;7.75;;;2.20;99.90;;;1.36;100.00;103817.69;4169495;28;20028;-71
2023/12/16 03:09:28;;;;;;;14.07;7.57;;;2.20;99.90;;;1.39;100.00;103826.31;4184723;28;20056;-71
2023/12/16 03:11:29;;;;;;;12.02;7.95;;;2.20;99.90;;;1.42;100.00;103835.78;4168190;28;20014;-71
2023/12/16 03:13:30;;;;;;;14.55;7.82;;;2.20;99.90;;;1.40;100.00;103842.78;4180230;28;20032;-71
2023/12/16 03:15:31;;;;;;;15.60;6.93;;;2.20;99.90;;;1.34;100.00;103832.47;4167874;28;20460;-71
2023/12/16 03:17:32;;;;;;;15.85;8.65;;;2.20;99.90;;;1.36;100.00;103839.34;4167623;28;20107;-71
2023/12/16 03:19:33;;;;;;;18.00;7.90;;;2.20;99.90;;;1.34;100.00;103837.66;4139116;28;20026;-71
2023/12/16 03:21:34;;;;;;;14.52;7.72;;;2.10;99.90;;;1.33;100.00;103834.19;4168263;28;20092;-71
2023/12/16 03:23:35;;;;;;;15.02;7.75;;;2.10;99.90;;;1.32;100.00;103835.06;4168003;28;20022;-71
2023/12/16 03:25:42;;;;;;;20.42;9.82;;;2.10;99.90;;;1.30;100.00;103830.75;4167987;28;20493;-71
2023/12/16 03:27:43;;;;;;;13.63;7.35;;;2.10;99.90;;;1.35;100.00;103834.16;4185058;28;20021;-71
2023/12/16 03:29:44;;;;;;;15.50;6.70;;;2.10;99.90;;;1.34;100.00;103835.06;4169265;28;20056;-71
2023/12/16 03:31:45;;;;;;;11.27;7.07;;;2.10;99.90;;;1.30;100.00;103830.75;4169178;28;20017;-71
2023/12/16 03:33:46;;;;;;;11.45;6.60;;;2.10;99.90;;;1.29;100.00;103829.91;4155500;28;20401;-72
2023/12/16 03:35:48;;;;;;;15.35;7.82;;;2.10;99.90;;;1.28;100.00;103825.59;4151560;28;20033;-72
2023/12/16 03:37:48;;;;;;;16.38;8.68;;;2.10;99.90;;;1.29;100.00;103834.25;4168953;28;20075;-71
2023/12/16 03:39:49;;;;;;;15.07;7.60;;;2.10;99.90;;;1.31;100.00;103833.38;4167796;28;20484;-71
2023/12/16 03:41:50;;;;;;;19.40;8.55;;;2.10;99.90;;;1.29;100.00;103827.31;4167679;28;20060;-71
2023/12/16 03:43:51;;;;;;;15.07;8.90;;;2.10;99.90;;;1.30;100.00;103830.75;4167585;28;20025;-71
2023/12/16 03:45:52;;;;;;;15.00;7.90;;;2.10;99.90;;;1.24;100.00;103810.91;4167606;28;20022;-71
2023/12/16 03:47:53;;;;;;;17.02;10.20;;;2.10;99.90;;;1.21;100.00;103805.75;4167689;28;20033;-71
2023/12/16 03:49:53;;;;;;;20.13;10.23;;;2.00;99.90;;;1.24;100.00;103813.50;4200839;28;20033;-71
2023/12/16 03:51:56;;;;;;;13.68;7.88;;;2.10;99.90;;;1.25;100.00;103814.38;4167165;28;20013;-71
2023/12/16 03:53:56;;;;;;;14.98;9.27;;;2.00;99.90;;;1.24;100.00;103810.06;4161266;28;20590;-71
2023/12/16 03:55:57;;;;;;;15.60;8.23;;;2.00;99.90;;;1.25;100.00;103807.44;4167276;28;20018;-71
2023/12/16 03:57:58;;;;;;;18.65;9.90;;;2.00;99.90;;;1.29;100.00;103808.22;4167750;28;20018;-71
2023/12/16 03:59:59;;;;;;;14.25;7.85;;;2.10;99.90;;;1.25;100.00;103807.44;4168876;28;20111;-71
2023/12/16 04:02:00;;;;;;;12.50;7.90;;;2.10;99.90;;;1.15;100.00;103794.56;4168836;28;20029;-71
2023/12/16 04:04:01;;;;;;;18.25;8.05;;;2.00;99.90;;;1.19;100.00;103812.72;4168522;28;20029;-71
2023/12/16 04:06:02;;;;;;;13.25;7.93;;;2.00;99.90;;;1.18;100.00;103817.94;4168830;28;20026;-71
2023/12/16 04:08:03;;;;;;;13.43;8.88;;;2.00;99.90;;;1.13;100.00;103806.75;4183989;28;20025;-71
2023/12/16 04:10:05;;;;;;;14.95;8.13;;;1.90;99.90;;;1.08;100.00;103807.66;4167561;28;20032;-71
2023/12/16 04:12:06;;;;;;;10.85;6.97;;;1.90;99.90;;;1.16;100.00;103811.91;4200390;28;20021;-71
2023/12/16 04:14:07;;;;;;;12.38;7.75;;;1.90;99.90;;;1.16;100.00;103811.91;4165155;28;20079;-71
2023/12/16 04:16:08;;;;;;;13.40;7.55;;;1.90;99.90;;;1.11;100.00;103811.94;4168225;28;20033;-72
2023/12/16 04:18:09;;;;;;;15.23;7.40;;;1.90;99.90;;;1.05;100.00;103810.28;4167479;28;20029;-72
2023/12/16 04:20:10;;;;;;;16.48;8.15;;;1.90;99.90;;;1.02;100.00;103814.66;4167636;28;20022;-71
2023/12/16 04:22:11;;;;;;;15.15;7.53;;;1.80;99.90;;;0.99;100.00;103812.09;4168562;28;20404;-71
2023/12/16 04:24:12;;;;;;;18.75;8.43;;;1.80;99.90;;;0.98;100.00;103805.22;4168340;28;20040;-71
2023/12/16 04:26:13;;;;;;;12.57;8.07;;;1.80;99.90;;;0.95;100.00;103813.06;4168380;28;20017;-71
2023/12/16 04:28:14;;;;;;;12.32;7.32;;;1.80;99.90;;;0.95;100.00;103810.44;4184034;28;20588;-71
2023/12/16 04:30:15;;;;;;;13.00;7.80;;;1.80;99.90;;;0.92;100.00;103806.16;4167731;28;20022;-72
2023/12/16 04:32:16;;;;;;;14.50;6.75;;;1.80;99.90;;;0.91;100.00;103803.56;4169897;28;20033;-72
2023/12/16 04:34:16;;;;;;;17.30;8.82;;;1.70;99.90;;;0.89;100.00;103798.41;4192556;28;20051;-71
2023/12/16 04:36:18;;;;;;;13.02;7.75;;;1.70;99.90;;;0.91;100.00;103807.03;4170921;28;20463;-71
2023/12/16 04:38:19;;;;;;;14.98;7.53;;;1.70;99.90;;;0.91;100.00;103808.75;4170508;28;20040;-71
2023/12/16 04:40:21;;;;;;;12.52;7.28;;;1.70;99.90;;;0.91;100.00;103817.41;4170506;28;20029;-71
2023/12/16 04:42:22;;;;;;;13.63;8.55;;;1.70;99.90;;;0.89;100.00;103815.72;4171564;28;20036;-71
2023/12/16 04:44:23;;;;;;;19.48;7.95;;;1.70;99.90;;;0.85;100.00;103814.91;4170591;28;20033;-71
2023/12/16 04:46:24;;;;;;;17.23;8.15;;;1.70;99.90;;;0.81;100.00;103805.41;4171747;28;20481;-71
2023/12/16 04:48:25;;;;;;;20.02;9.35;;;1.60;99.90;;;0.79;100.00;103801.13;4171732;28;20089;-71
2023/12/16 04:50:25;;;;;;;17.73;8.70;;;1.60;99.90;;;0.70;100.00;103794.28;4187045;28;20024;-71
2023/12/16 04:52:26;;;;;;;14.10;8.95;;;1.60;99.90;;;0.80;100.00;103808.03;4151558;28;20021;-71
2023/12/16 04:54:30;;;;;;;18.40;9.05;;;1.60;99.90;;;0.79;100.00;103801.97;4166710;28;20424;-71
2023/12/16 04:56:31;;;;;;;9.85;5.60;;;1.60;99.90;;;0.77;100.00;103801.16;4154086;28;20030;-71
2023/12/16 04:58:32;;;;;;;18.23;7.85;;;1.60;99.90;;;0.75;100.00;103808.06;4171554;28;20417;-71
2023/12/16 05:00:33;;;;;;;15.18;9.43;;;1.60;99.90;;;0.72;100.00;103800.31;4185994;28;20035;-71
2023/12/16 05:02:34;;;;;;;16.63;9.52;;;1.60;99.90;;;0.65;100.00;103792.63;4168887;28;20022;-71
2023/12/16 05:04:35;;;;;;;16.52;9.13;;;1.50;99.90;;;0.68;100.00;103806.44;4201506;28;20047;-71
2023/12/16 05:06:36;;;;;;;16.45;8.88;;;1.50;99.90;;;0.70;100.00;103811.63;4186673;28;20035;-71
2023/12/16 05:08:36;;;;;;;18.85;8.70;;;1.50;99.90;;;0.68;100.00;103803.00;4169513;28;20068;-71
2023/12/16 05:10:37;;;;;;;13.52;8.18;;;1.50;99.90;;;0.70;100.00;103809.88;4153514;28;20021;-71
2023/12/16 05:12:40;;;;;;;16.80;8.45;;;1.50;99.90;;;0.72;100.00;103805.50;4183693;28;20097;-71
2023/12/16 05:14:41;;;;;;;11.68;7.32;;;1.50;99.90;;;0.71;100.00;103797.75;4186560;28;20021;-71
2023/12/16 05:16:41;;;;;;;16.83;7.93;;;1.50;99.90;;;0.68;100.00;103803.84;4186433;28;20071;-71
2023/12/16 05:18:42;;;;;;;12.32;8.18;;;1.50;99.90;;;0.72;100.00;103815.06;4170041;28;20060;-71
2023/12/16 05:20:44;;;;;;;17.63;8.57;;;1.50;99.90;;;0.60;100.00;103808.25;4170988;28;20025;-71
2023/12/16 05:22:44;;;;;;;18.15;9.30;;;1.50;99.90;;;0.63;100.00;103817.78;4171162;28;20021;-71
2023/12/16 05:24:48;;;;;;;16.52;8.40;;;1.50;99.90;;;0.59;100.00;103811.75;4170265;28;20033;-71
2023/12/16 05:26:48;;;;;;;14.20;8.38;;;1.40;99.90;;;0.61;100.00;103822.97;4169827;28;20021;-71
2023/12/16 05:28:49;;;;;;;12.43;7.63;;;1.40;99.90;;;0.56;100.00;103819.56;4170065;28;20029;-71
2023/12/16 05:30:50;;;;;;;18.00;8.05;;;1.40;99.90;;;0.46;100.00;103813.63;4169583;28;20025;-71
2023/12/16 05:32:51;;;;;;;16.02;7.78;;;1.40;99.90;;;0.52;100.00;103823.94;4165505;28;20022;-71
2023/12/16 05:34:53;;;;;;;14.63;7.07;;;1.30;99.90;;;0.50;100.00;103830.91;4195671;28;20408;-71
2023/12/16 05:36:54;;;;;;;14.68;7.00;;;1.30;99.90;;;0.41;100.00;103807.63;4169748;28;20033;-71
2023/12/16 05:38:55;;;;;;;12.75;7.55;;;1.30;99.90;;;0.48;100.00;103832.63;4170647;28;20538;-71
2023/12/16 05:40:56;;;;;;;15.60;7.68;;;1.30;99.90;;;0.43;100.00;103831.81;4170659;28;20033;-71
2023/12/16 05:42:57;;;;;;;13.73;7.40;;;1.30;99.90;;;0.37;100.00;103823.22;4164079;28;20022;-71
2023/12/16 05:44:57;;;;;;;12.98;7.88;;;1.30;99.90;;;0.41;100.00;103835.31;4166196;28;20029;-71
2023/12/16 05:46:58;;;;;;;13.30;7.55;;;1.30;99.90;;;0.40;100.00;103833.59;4170600;28;20104;-71
2023/12/16 05:48:59;;;;;;;17.05;8.40;;;1.20;99.90;;;0.36;100.00;103827.56;4169515;28;20033;-71
2023/12/16 05:51:00;;;;;;;16.38;7.88;;;1.20;99.90;;;0.39;100.00;103837.03;4186165;28;20396;-71
2023/12/16 05:53:01;;;;;;;17.45;8.63;;;1.20;99.90;;;0.33;100.00;103818.97;4170630;28;20029;-71
2023/12/16 05:55:02;;;;;;;13.82;8.05;;;1.20;99.90;;;0.39;100.00;103834.44;4170515;28;20036;-71
2023/12/16 05:57:04;;;;;;;13.45;8.90;;;1.20;99.90;;;0.34;100.00;103823.25;4169283;28;20049;-71
2023/12/16 05:59:05;;;;;;;11.07;7.07;;;1.20;99.90;;;0.35;100.00;103831.06;4185795;28;20029;-71
2023/12/16 06:01:06;;;;;;;11.98;7.35;;;1.20;99.90;;;0.33;100.00;103821.56;4169332;28;20041;-71
2023/12/16 06:03:07;;;;;;;11.43;7.30;;;1.20;99.90;;;0.39;100.00;103837.91;4165230;28;20022;-71
2023/12/16 06:05:08;;;;;;;11.90;7.18;;;1.20;99.90;;;0.36;100.00;103837.09;4169413;28;20030;-71
2023/12/16 06:07:09;;;;;;;9.80;7.53;;;1.20;99.90;;;0.31;100.00;103839.72;4169304;28;20026;-71
2023/12/16 06:09:10;;;;;;;18.50;8.35;;;1.20;99.90;;;0.29;100.00;103841.50;4169210;28;20037;-71
2023/12/16 06:11:15;;;;;;;15.50;8.40;;;1.10;99.90;;;0.30;100.00;103844.94;4169998;28;20025;-71
2023/12/16 06:13:15;;;;;;;14.88;8.20;;;1.10;99.90;;;0.32;100.00;103843.19;4186165;28;20021;-71
2023/12/16 06:15:16;;;;;;;16.52;9.40;;;1.10;99.90;;;0.26;100.00;103825.94;4170316;28;20081;-72
2023/12/16 06:17:17;;;;;;;16.65;7.47;;;1.10;99.90;;;0.28;100.00;103831.09;4170553;28;20051;-71
2023/12/16 06:19:18;;;;;;;14.02;7.35;;;1.10;99.90;;;0.23;100.00;103819.91;4168972;28;20057;-71
2023/12/16 06:21:19;;;;;;;15.20;7.75;;;1.10;99.90;;;0.26;100.00;103831.13;4170323;28;20033;-71
2023/12/16 06:23:20;;;;;;;13.35;8.18;;;1.10;99.90;;;0.28;100.00;103838.91;4201998;28;20110;-71
2023/12/16 06:25:21;;;;;;;11.27;6.72;;;1.10;99.90;;;0.21;100.00;103825.09;4169985;28;20029;-71
2023/12/16 06:27:22;;;;;;;12.57;7.85;;;1.10;99.90;;;0.25;100.00;103836.31;4168376;28;20414;-71
2023/12/16 06:29:23;;;;;;;12.55;7.50;;;1.10;99.90;;;0.25;100.00;103844.13;4170135;28;20029;-71
2023/12/16 06:31:24;;;;;;;12.02;7.15;;;1.00;99.90;;;0.20;100.00;103831.19;4202219;28;20029;-71
2023/12/16 06:33:24;;;;;;;8.50;6.47;;;1.10;99.90;;;0.20;100.00;103832.94;4152305;28;20030;-71
2023/12/16 06:35:25;;;;;;;11.35;6.82;;;1.10;99.90;;;0.23;100.00;103832.91;4168750;28;20555;-71
2023/12/16 06:37:26;;;;;;;16.02;7.53;;;1.10;99.90;;;0.14;100.00;103827.78;4169993;28;20029;-71
2023/12/16 06:39:27;;;;;;;29.35;9.57;;;1.00;99.90;;;0.21;100.00;103838.09;4169878;28;20025;-71
2023/12/16 06:41:30;;;;;;;12.75;8.32;;;1.10;99.90;;;0.24;100.00;103834.63;4168464;28;20101;-71
2023/12/16 06:43:31;;;;;;;12.48;8.05;;;1.10;99.90;;;0.24;100.00;103834.63;4161215;28;20022;-71
2023/12/16 06:45:32;;;;;;;16.38;8.88;;;1.10;99.90;;;0.23;100.00;103831.16;4152183;28;20476;-71
2023/12/16 06:47:33;;;;;;;14.15;8.23;;;1.10;99.90;;;0.25;100.00;103837.19;4169887;28;20108;-71
2023/12/16 06:49:33;;;;;;;13.68;7.82;;;1.10;99.90;;;0.26;100.00;103840.66;4169827;28;20021;-71
2023/12/16 06:51:34;;;;;;;13.90;7.90;;;1.10;99.90;;;0.26;100.00;103836.34;4169652;28;20021;-71
2023/12/16 06:53:36;;;;;;;15.35;8.13;;;1.10;99.90;;;0.22;100.00;103833.75;4167807;28;20022;-71
2023/12/16 06:55:36;;;;;;;13.45;8.48;;;1.10;99.90;;;0.26;100.00;103836.34;4168186;28;20497;-71
2023/12/16 06:57:37;;;;;;;16.65;9.57;;;1.10;99.90;;;0.24;100.00;103834.63;4169702;28;20060;-71
2023/12/16 06:59:38;;;;;;;19.20;9.20;;;1.10;99.90;;;0.28;100.00;103844.09;4169632;28;20030;-71
2023/12/16 07:01:39;;;;;;;14.55;8.52;;;1.10;99.90;;;0.21;100.00;103832.06;4168638;28;20045;-71
2023/12/16 07:03:40;;;;;;;20.60;9.77;;;1.10;99.90;;;0.22;100.00;103849.34;4184776;28;20455;-71
2023/12/16 07:05:41;;;;;;;16.75;9.60;;;1.10;99.90;;;0.22;100.00;103849.34;4194475;28;20494;-71
2023/12/16 07:07:43;;;;;;;14.32;8.23;;;1.10;99.90;;;0.20;100.00;103843.31;4175981;28;20032;-71
2023/12/16 07:09:44;;;;;;;14.10;7.10;;;1.00;99.90;;;0.17;100.00;103830.34;4167973;28;20033;-71
2023/12/16 07:11:45;;;;;;;14.93;7.13;;;1.00;99.90;;;0.14;100.00;103839.03;4168209;28;20021;-71
2023/12/16 07:13:45;;;;;;;13.55;7.72;;;1.00;99.90;;;0.07;100.00;103831.31;4168064;28;20025;-71
2023/12/16 07:15:46;;;;;;;14.52;7.80;;;1.00;99.90;;;0.10;100.00;103836.47;4169318;28;20029;-71
2023/12/16 07:17:47;;;;;;;10.48;7.63;;;0.90;99.90;;;0.06;100.00;103843.41;4168998;28;20049;-71
2023/12/16 07:19:48;;;;;;;12.10;7.75;;;0.90;99.90;;;0.02;100.00;103830.50;4168240;28;20044;-71
2023/12/16 07:21:49;;;;;;;12.63;7.90;;;0.90;99.90;;;0.02;100.00;103849.53;4168126;28;20038;-71
2023/12/16 07:23:51;;;;;;;15.30;8.32;;;0.90;99.90;;;0.00;100.00;103843.50;4190139;28;20033;-71
2023/12/16 07:25:52;;;;;;;14.00;8.88;;;0.90;99.90;;;-0.02;100.00;103840.91;4167563;28;20060;-71
2023/12/16 07:27:53;;;;;;;15.43;8.15;;;0.80;99.90;;;-0.04;100.00;103837.47;4169248;28;20030;-71
2023/12/16 07:29:53;;;;;;;13.00;7.68;;;0.80;99.90;;;0.02;100.00;103841.75;4169120;28;20021;-71
2023/12/16 07:31:54;;;;;;;14.13;8.13;;;0.80;99.90;;;-0.03;100.00;103836.56;4168178;28;20017;-71
2023/12/16 07:33:56;;;;;;;15.45;8.68;;;0.80;99.90;;;-0.03;100.00;103841.75;4159195;28;20052;-71
2023/12/16 07:35:57;;;;;;;13.50;7.90;;;0.80;99.90;;;-0.01;100.00;103846.94;4151714;28;20030;-71
2023/12/16 07:37:58;;;;;;;14.88;7.78;;;0.80;99.90;;;-0.06;100.00;103835.75;4151357;28;20474;-71
2023/12/16 07:39:59;;;;;;;20.58;8.95;;;0.80;99.90;;;-0.04;100.00;103845.25;4169232;28;20101;-71
2023/12/16 07:41:59;;;;;;;19.83;9.65;;;0.90;99.90;;;0.04;100.00;103849.50;4151022;28;20041;-71
2023/12/16 07:44:01;;;;;;;18.40;8.63;;;0.80;99.90;;;0.04;100.00;103850.34;4167760;28;20591;-71
2023/12/16 07:46:05;;;;;;;15.63;8.68;;;0.90;99.90;;;0.06;100.00;103850.38;4168815;28;20037;-72
2023/12/16 07:48:05;;;;;;;11.88;8.82;;;0.90;99.90;;;0.06;100.00;103851.19;4169007;28;20104;-71
2023/12/16 07:50:07;;;;;;;14.80;9.00;;;0.90;99.90;;;0.05;100.00;103846.03;4168795;28;20489;-71
2023/12/16 07:52:08;;;;;;;15.25;9.43;;;0.90;99.90;;;0.05;100.00;103852.09;4168491;28;20025;-71
2023/12/16 07:54:11;;;;;;;21.92;9.10;;;0.90;99.90;;;0.01;100.00;103847.78;4168874;28;20053;-71
2023/12/16 07:56:22;;;;;;;17.15;8.70;;;0.90;99.90;;;0.07;100.00;103850.34;4184253;28;20066;-71
2023/12/16 07:58:22;;;;;;;16.67;9.38;;;0.90;99.90;;;0.09;100.00;103851.16;4176151;28;20041;-71
2023/12/16 08:00:23;;;;;;;21.45;9.70;;;0.90;99.90;;;0.05;100.00;103843.44;4168845;28;20026;-72
2023/12/16 08:02:25;;;;;;;22.13;9.23;;;0.90;99.90;;;0.08;100.00;103858.97;4184164;28;20051;-72
2023/12/16 08:04:25;;;;;;;19.17;9.40;;;0.90;99.90;;;0.11;100.00;103851.19;4168606;28;20036;-72
2023/12/16 08:06:27;;;;;;;16.85;8.98;;;0.90;99.90;;;0.09;100.00;103842.56;4168305;28;20030;-71
2023/12/16 08:08:28;;;;;;;14.07;8.77;;;0.90;99.90;;;0.14;100.00;103848.56;4168872;28;20033;-71
2023/12/16 08:10:29;;;;;;;14.15;7.93;;;0.90;99.90;;;0.14;100.00;103857.22;4168600;28;20029;-72
2023/12/16 08:12:30;;;;;;;18.75;9.10;;;1.00;99.90;;;0.13;100.00;103859.78;4168896;28;20025;-72
2023/12/16 08:14:31;;;;;;;15.82;9.48;;;1.00;99.90;;;0.14;100.00;103851.16;4183600;28;20055;-72
2023/12/16 08:16:32;;;;;;;17.95;9.63;;;1.00;99.90;;;0.13;100.00;103858.06;4168572;28;20042;-71
2023/12/16 08:18:33;;;;;;;15.52;9.45;;;1.00;99.90;;;0.18;100.00;103852.84;4168674;28;20136;-71
2023/12/16 08:20:33;;;;;;;13.18;8.70;;;1.00;99.90;;;0.20;100.00;103848.50;4167344;28;20021;-71
2023/12/16 08:22:35;;;;;;;15.50;9.40;;;1.10;99.90;;;0.23;100.00;103849.34;4200348;28;20054;-71